Aviation Digital Data Service (ADDS)

Output produced by METARs form (0746 UTC 24 May 2018)
found at http://www.aviationweather.gov/adds/metars/
 
GLRB 240500Z 34004KT 9999 BKN012 25/24 Q1011 NOSIG
TAF GLRB 240400Z 2406/2512 23010KT 9999 BKN018 
     TEMPO 2409/2413 22010KT SCT017 FEW025CB 
     TEMPO 2415/2419 20008KT 8000 SHRA/TS BKN015 FEW024CB